Time;durP1;ratioP1;P1;durP2;ratioP2;P2;SDS_P1;SDS_P2;PMS_P1;PMS_P2;Temp;Humidity;BMP_temperature;BMP_pressure;BME280_temperature;BME280_humidity;BME280_pressure;Samples;Min_cycle;Max_cycle;Signal;HPM_P1;HPM_P2
2022/06/15 00:00:23;;;;;;;6.13;3.90;;;;;;;;;;4984379;28;20217;-58
2022/06/15 00:02:48;;;;;;;5.17;3.90;;;;;;;;;;4991903;28;20191;-58
2022/06/15 00:05:14;;;;;;;6.13;3.90;;;;;;;;;;4986900;28;20564;-58
2022/06/15 00:07:40;;;;;;;5.37;3.60;;;;;;;;;;4977224;28;20874;-58
2022/06/15 00:10:07;;;;;;;6.83;3.53;;;;;;;;;;4984891;28;20693;-58
2022/06/15 00:12:33;;;;;;;4.10;3.50;;;;;;;;;;4989216;28;20233;-57
2022/06/15 00:14:59;;;;;;;4.23;3.80;;;;;;;;;;4990478;28;20186;-58
2022/06/15 00:17:25;;;;;;;5.30;3.80;;;;;;;;;;4980584;28;20201;-58
2022/06/15 00:19:50;;;;;;;5.43;3.77;;;;;;;;;;4991583;28;20232;-58
2022/06/15 00:22:16;;;;;;;4.77;3.67;;;;;;;;;;4989720;28;20201;-58
2022/06/15 00:24:42;;;;;;;5.43;3.80;;;;;;;;;;4975741;28;20196;-58
2022/06/15 00:27:08;;;;;;;10.67;3.70;;;;;;;;;;4974847;28;20232;-57
2022/06/15 00:29:37;;;;;;;5.97;4.73;;;;;;;;;;4980945;28;20186;-58
2022/06/15 00:32:03;;;;;;;5.40;4.90;;;;;;;;;;4969653;28;20721;-57
2022/06/15 00:34:29;;;;;;;4.97;4.53;;;;;;;;;;4977795;28;20530;-58
2022/06/15 00:36:55;;;;;;;5.07;4.47;;;;;;;;;;4981226;28;20212;-58
2022/06/15 00:39:21;;;;;;;5.97;4.50;;;;;;;;;;4984910;28;20197;-58
2022/06/15 00:41:47;;;;;;;7.57;4.77;;;;;;;;;;4980847;28;20296;-57
2022/06/15 00:44:19;;;;;;;5.00;4.60;;;;;;;;;;4987543;28;20221;-57
2022/06/15 00:46:45;;;;;;;5.37;4.87;;;;;;;;;;4975224;28;20670;-57
2022/06/15 00:49:17;;;;;;;5.93;5.33;;;;;;;;;;4977350;28;20229;-58
2022/06/15 00:51:43;;;;;;;5.10;4.70;;;;;;;;;;4980303;28;20190;-58
2022/06/15 00:54:08;;;;;;;5.67;4.47;;;;;;;;;;4993030;28;20192;-58
2022/06/15 00:56:35;;;;;;;6.10;5.30;;;;;;;;;;4990659;28;20277;-57
2022/06/15 00:59:06;;;;;;;5.33;4.93;;;;;;;;;;4989443;28;20204;-57
2022/06/15 01:01:32;;;;;;;5.60;5.10;;;;;;;;;;4989927;28;20277;-57
2022/06/15 01:03:58;;;;;;;5.67;5.10;;;;;;;;;;4990752;28;20598;-58
2022/06/15 01:06:27;;;;;;;5.10;4.60;;;;;;;;;;4989016;28;20584;-58
2022/06/15 01:09:00;;;;;;;5.40;4.40;;;;;;;;;;4986366;28;20186;-58
2022/06/15 01:11:26;;;;;;;6.13;4.53;;;;;;;;;;4987184;28;20194;-58
2022/06/15 01:13:55;;;;;;;5.77;5.17;;;;;;;;;;4985913;28;20264;-57
2022/06/15 01:16:48;;;;;;;7.20;4.30;;;;;;;;;;4988532;28;20197;-57
2022/06/15 01:19:22;;;;;;;6.73;4.13;;;;;;;;;;4963139;28;20222;-58
2022/06/15 01:21:54;;;;;;;5.07;4.57;;;;;;;;;;4976860;28;20190;-58
2022/06/15 01:24:20;;;;;;;8.90;4.93;;;;;;;;;;4976114;28;20340;-58
2022/06/15 01:27:11;;;;;;;4.83;4.33;;;;;;;;;;4966138;28;20260;-58
2022/06/15 01:29:55;;;;;;;5.07;4.20;;;;;;;;;;4975299;28;20182;-57
2022/06/15 01:32:32;;;;;;;4.57;4.03;;;;;;;;;;4975163;28;20193;-58
2022/06/15 01:34:58;;;;;;;4.23;3.77;;;;;;;;;;4975144;28;20193;-58
2022/06/15 01:37:26;;;;;;;6.67;4.20;;;;;;;;;;4980148;28;20614;-57
2022/06/15 01:39:57;;;;;;;4.27;3.90;;;;;;;;;;4976515;28;20214;-58
2022/06/15 01:42:24;;;;;;;5.27;4.33;;;;;;;;;;4976375;28;20263;-57
2022/06/15 01:45:01;;;;;;;5.03;4.53;;;;;;;;;;4988503;28;20281;-58
2022/06/15 01:47:27;;;;;;;3.97;3.43;;;;;;;;;;4988524;28;20304;-57
2022/06/15 01:49:55;;;;;;;4.30;3.90;;;;;;;;;;4982701;28;20190;-58
2022/06/15 01:52:21;;;;;;;6.40;4.23;;;;;;;;;;4982791;28;20265;-58
2022/06/15 01:54:49;;;;;;;5.20;3.70;;;;;;;;;;4968925;28;20328;-58
2022/06/15 01:57:15;;;;;;;3.50;3.20;;;;;;;;;;4976641;28;20193;-58
2022/06/15 01:59:44;;;;;;;4.87;3.40;;;;;;;;;;4979232;28;20200;-58
2022/06/15 02:02:29;;;;;;;6.60;4.43;;;;;;;;;;4985481;28;20276;-58
2022/06/15 02:05:07;;;;;;;5.17;4.10;;;;;;;;;;4970360;28;20348;-58
2022/06/15 02:07:40;;;;;;;6.17;4.40;;;;;;;;;;4969566;28;21154;-58
2022/06/15 02:10:09;;;;;;;5.20;3.43;;;;;;;;;;4987899;28;20225;-58
2022/06/15 02:12:40;;;;;;;4.87;3.20;;;;;;;;;;4995660;28;20271;-57
2022/06/15 02:15:06;;;;;;;9.53;3.87;;;;;;;;;;4982526;28;20213;-57
2022/06/15 02:17:39;;;;;;;8.40;3.60;;;;;;;;;;4993355;28;20205;-57
2022/06/15 02:20:28;;;;;;;3.87;3.20;;;;;;;;;;4994445;28;20190;-58
2022/06/15 02:22:55;;;;;;;7.17;3.60;;;;;;;;;;4984776;28;20220;-57
2022/06/15 02:25:22;;;;;;;4.93;3.73;;;;;;;;;;4990999;28;20190;-58
2022/06/15 02:27:49;;;;;;;4.77;4.27;;;;;;;;;;4994163;28;20205;-57
2022/06/15 02:30:19;;;;;;;4.47;4.07;;;;;;;;;;4989866;28;20255;-57
2022/06/15 02:32:46;;;;;;;5.13;4.73;;;;;;;;;;4978478;28;21253;-57
2022/06/15 02:35:13;;;;;;;5.23;4.83;;;;;;;;;;4971323;28;20194;-57
2022/06/15 02:37:39;;;;;;;4.77;4.37;;;;;;;;;;4981881;28;20280;-58
2022/06/15 02:40:05;;;;;;;5.77;5.10;;;;;;;;;;4980795;28;20193;-58
2022/06/15 02:42:32;;;;;;;7.33;4.73;;;;;;;;;;4970149;28;20190;-58
2022/06/15 02:45:09;;;;;;;6.17;4.63;;;;;;;;;;4970196;28;20216;-58
2022/06/15 02:47:36;;;;;;;6.03;5.27;;;;;;;;;;4983289;28;20574;-58
2022/06/15 02:50:02;;;;;;;5.77;5.27;;;;;;;;;;4986451;28;20198;-57
2022/06/15 02:52:29;;;;;;;5.10;4.60;;;;;;;;;;4997128;28;20186;-58
2022/06/15 02:54:55;;;;;;;5.57;5.10;;;;;;;;;;4990903;28;20712;-58
2022/06/15 02:57:21;;;;;;;5.20;4.70;;;;;;;;;;4990787;28;20208;-58
2022/06/15 02:59:47;;;;;;;5.43;5.00;;;;;;;;;;4989416;28;20190;-59
2022/06/15 03:02:14;;;;;;;5.63;4.93;;;;;;;;;;4998476;28;20592;-57
2022/06/15 03:04:44;;;;;;;6.10;4.70;;;;;;;;;;4988586;28;20212;-57
2022/06/15 03:07:11;;;;;;;6.70;5.33;;;;;;;;;;4986986;28;20237;-57
2022/06/15 03:09:37;;;;;;;5.97;5.37;;;;;;;;;;4983646;28;20197;-58
2022/06/15 03:12:03;;;;;;;5.10;4.60;;;;;;;;;;4985576;28;20185;-57
2022/06/15 03:14:30;;;;;;;5.37;4.87;;;;;;;;;;4991052;28;20186;-58
2022/06/15 03:16:56;;;;;;;5.53;5.10;;;;;;;;;;4991167;28;20252;-58
2022/06/15 03:19:22;;;;;;;6.07;5.47;;;;;;;;;;4993577;28;20197;-58
2022/06/15 03:21:48;;;;;;;5.40;4.90;;;;;;;;;;4985851;28;20200;-58
2022/06/15 03:24:14;;;;;;;5.10;4.60;;;;;;;;;;4976445;28;20229;-57
2022/06/15 03:26:40;;;;;;;6.40;4.37;;;;;;;;;;4974706;28;20217;-58
2022/06/15 03:29:06;;;;;;;4.90;4.50;;;;;;;;;;4978434;28;20217;-57
2022/06/15 03:31:32;;;;;;;4.97;4.50;;;;;;;;;;4987324;28;20190;-58
2022/06/15 03:33:58;;;;;;;5.53;4.67;;;;;;;;;;4981296;28;20197;-58
2022/06/15 03:36:24;;;;;;;5.70;4.67;;;;;;;;;;4983776;28;20189;-58
2022/06/15 03:38:51;;;;;;;6.23;4.60;;;;;;;;;;4980770;28;20198;-58
2022/06/15 03:41:17;;;;;;;5.00;4.37;;;;;;;;;;4983628;28;20837;-58
2022/06/15 03:43:43;;;;;;;7.80;5.00;;;;;;;;;;4979106;28;20238;-57
2022/06/15 03:46:10;;;;;;;5.07;4.57;;;;;;;;;;4978619;28;20241;-58
2022/06/15 03:48:36;;;;;;;5.07;4.23;;;;;;;;;;4982323;28;20669;-58
2022/06/15 03:51:02;;;;;;;5.57;4.20;;;;;;;;;;4982776;28;20284;-58
2022/06/15 03:53:28;;;;;;;5.57;4.60;;;;;;;;;;4989752;28;20216;-58
2022/06/15 03:55:54;;;;;;;4.50;4.10;;;;;;;;;;4977114;28;20832;-58
2022/06/15 03:58:20;;;;;;;7.10;5.00;;;;;;;;;;4983612;28;20186;-58
2022/06/15 04:00:46;;;;;;;5.03;4.30;;;;;;;;;;4972632;28;20194;-58
2022/06/15 04:03:12;;;;;;;4.97;4.33;;;;;;;;;;4964797;28;20198;-58
2022/06/15 04:05:42;;;;;;;5.27;4.43;;;;;;;;;;4980674;28;20624;-58
2022/06/15 04:10:58;;;;;;;4.57;4.17;;;;;;;;;;4990879;28;20667;-58
2022/06/15 04:13:24;;;;;;;5.43;4.00;;;;;;;;;;4982076;28;20205;-58
2022/06/15 04:15:50;;;;;;;5.03;4.53;;;;;;;;;;4987367;28;20303;-57
2022/06/15 04:18:16;;;;;;;7.47;4.43;;;;;;;;;;4976732;28;20193;-57
2022/06/15 04:20:42;;;;;;;5.53;4.10;;;;;;;;;;4983962;28;20198;-58
2022/06/15 04:23:09;;;;;;;4.97;4.00;;;;;;;;;;4986964;28;20786;-57
2022/06/15 04:25:36;;;;;;;5.47;4.50;;;;;;;;;;4982486;28;22382;-57
2022/06/15 04:28:02;;;;;;;5.10;4.23;;;;;;;;;;4989193;28;20213;-58
2022/06/15 04:30:28;;;;;;;5.27;4.60;;;;;;;;;;4979807;28;21903;-58
2022/06/15 04:32:54;;;;;;;5.43;4.90;;;;;;;;;;4984009;28;20196;-58
2022/06/15 04:35:20;;;;;;;6.17;4.60;;;;;;;;;;4974547;28;20224;-57
2022/06/15 04:37:45;;;;;;;6.70;5.27;;;;;;;;;;4973161;28;20199;-58
2022/06/15 04:40:15;;;;;;;7.00;4.90;;;;;;;;;;4979548;28;20277;-60
2022/06/15 04:42:41;;;;;;;9.57;5.73;;;;;;;;;;4978802;28;20189;-58
2022/06/15 04:45:08;;;;;;;5.63;5.00;;;;;;;;;;4979047;28;20217;-57
2022/06/15 04:47:34;;;;;;;6.97;5.07;;;;;;;;;;4984844;28;20213;-56
2022/06/15 04:50:00;;;;;;;7.30;4.83;;;;;;;;;;4983951;28;20222;-56
2022/06/15 04:52:26;;;;;;;8.77;5.27;;;;;;;;;;4989690;28;20182;-57
2022/06/15 04:54:52;;;;;;;7.50;5.57;;;;;;;;;;4982893;28;25656;-56
2022/06/15 04:57:18;;;;;;;7.03;5.70;;;;;;;;;;4984704;28;20198;-55
2022/06/15 04:59:44;;;;;;;11.13;6.20;;;;;;;;;;4981457;28;20186;-57
2022/06/15 05:02:11;;;;;;;6.53;5.50;;;;;;;;;;4978322;28;20284;-59
2022/06/15 05:04:37;;;;;;;9.30;5.20;;;;;;;;;;4976785;28;20208;-58
2022/06/15 05:07:03;;;;;;;7.23;5.67;;;;;;;;;;4984679;28;20233;-57
2022/06/15 05:09:29;;;;;;;8.87;6.57;;;;;;;;;;4984451;28;20655;-56
2022/06/15 05:11:55;;;;;;;6.87;6.27;;;;;;;;;;4984198;28;20572;-55
2022/06/15 05:14:21;;;;;;;9.87;7.27;;;;;;;;;;4982837;28;20193;-55
2022/06/15 05:16:47;;;;;;;10.73;7.27;;;;;;;;;;4987148;28;20550;-55
2022/06/15 05:19:13;;;;;;;11.17;7.47;;;;;;;;;;4986818;28;20260;-55
2022/06/15 05:21:39;;;;;;;12.13;7.97;;;;;;;;;;4984812;28;20261;-54
2022/06/15 05:24:05;;;;;;;10.67;7.33;;;;;;;;;;4987154;28;20294;-54
2022/06/15 05:26:32;;;;;;;11.17;8.33;;;;;;;;;;4976428;28;20219;-54
2022/06/15 05:28:58;;;;;;;8.47;6.27;;;;;;;;;;4991663;28;20249;-60
2022/06/15 05:31:24;;;;;;;11.20;6.40;;;;;;;;;;4985638;28;20658;-59
2022/06/15 05:33:53;;;;;;;7.40;6.00;;;;;;;;;;4991637;28;20185;-58
2022/06/15 05:36:20;;;;;;;6.80;5.60;;;;;;;;;;4993489;28;20887;-60
2022/06/15 05:38:46;;;;;;;6.70;6.00;;;;;;;;;;4992560;28;20194;-58
2022/06/15 05:41:11;;;;;;;7.10;5.17;;;;;;;;;;4984857;28;20255;-60
2022/06/15 05:43:45;;;;;;;6.27;5.20;;;;;;;;;;4980112;28;20733;-59
2022/06/15 05:46:12;;;;;;;5.47;4.70;;;;;;;;;;4976753;28;20210;-60
2022/06/15 05:48:38;;;;;;;5.40;4.87;;;;;;;;;;4980195;28;20189;-59
2022/06/15 05:51:04;;;;;;;5.43;4.73;;;;;;;;;;4977405;28;21399;-60
2022/06/15 05:53:30;;;;;;;6.53;5.07;;;;;;;;;;4983875;28;20197;-59
2022/06/15 05:55:56;;;;;;;5.97;4.97;;;;;;;;;;4984550;28;20194;-59
2022/06/15 05:58:23;;;;;;;5.77;4.27;;;;;;;;;;4991792;28;20186;-59
2022/06/15 06:00:48;;;;;;;6.83;4.60;;;;;;;;;;4994718;28;20613;-59
2022/06/15 06:03:16;;;;;;;7.60;5.00;;;;;;;;;;4992618;28;20197;-60
2022/06/15 06:05:42;;;;;;;6.00;4.37;;;;;;;;;;4979843;28;20224;-60
2022/06/15 06:08:08;;;;;;;6.30;4.30;;;;;;;;;;4986060;28;20212;-59
2022/06/15 06:10:34;;;;;;;6.40;4.67;;;;;;;;;;4988757;28;20182;-60
2022/06/15 06:13:00;;;;;;;6.10;4.40;;;;;;;;;;4987866;28;20198;-60
2022/06/15 06:15:26;;;;;;;4.87;4.23;;;;;;;;;;4996087;28;20261;-60
2022/06/15 06:17:52;;;;;;;5.73;4.13;;;;;;;;;;4993296;28;20197;-59
2022/06/15 06:20:18;;;;;;;6.27;4.10;;;;;;;;;;4997305;28;20252;-59
2022/06/15 06:22:44;;;;;;;4.93;3.70;;;;;;;;;;4991874;28;20251;-60
2022/06/15 06:25:10;;;;;;;4.77;3.60;;;;;;;;;;4983490;28;20659;-59
2022/06/15 06:27:36;;;;;;;5.90;3.97;;;;;;;;;;4983410;28;20568;-59
2022/06/15 06:30:02;;;;;;;8.47;4.03;;;;;;;;;;4991780;28;20288;-60
2022/06/15 06:32:28;;;;;;;4.70;3.63;;;;;;;;;;4994165;28;20624;-60
2022/06/15 06:34:55;;;;;;;4.27;3.90;;;;;;;;;;4995229;28;20197;-60
2022/06/15 06:37:21;;;;;;;7.63;3.27;;;;;;;;;;4995223;28;20723;-59
2022/06/15 06:39:47;;;;;;;4.63;3.00;;;;;;;;;;4989995;28;20187;-59
2022/06/15 06:42:13;;;;;;;4.87;3.70;;;;;;;;;;4993503;28;20228;-60
2022/06/15 06:44:39;;;;;;;8.40;3.70;;;;;;;;;;4995947;28;20186;-59
2022/06/15 06:47:07;;;;;;;15.13;5.17;;;;;;;;;;4998619;28;22672;-60
2022/06/15 06:49:34;;;;;;;10.10;6.80;;;;;;;;;;4996098;28;20189;-60
2022/06/15 06:52:00;;;;;;;7.90;3.57;;;;;;;;;;4996639;28;20505;-60
2022/06/15 06:54:26;;;;;;;11.53;9.03;;;;;;;;;;4995227;28;20670;-60
2022/06/15 06:56:52;;;;;;;12.17;4.00;;;;;;;;;;5001812;28;20284;-59
2022/06/15 06:59:18;;;;;;;11.27;6.97;;;;;;;;;;5001679;28;20691;-60
2022/06/15 07:01:44;;;;;;;8.53;3.70;;;;;;;;;;4997777;28;21212;-60
2022/06/15 07:04:11;;;;;;;10.77;7.07;;;;;;;;;;4997360;28;21204;-59
2022/06/15 07:06:37;;;;;;;8.57;3.50;;;;;;;;;;5001339;28;20229;-60
2022/06/15 07:09:03;;;;;;;8.17;3.40;;;;;;;;;;4999620;28;20553;-60
2022/06/15 07:11:29;;;;;;;5.87;4.70;;;;;;;;;;5004555;28;20186;-59
2022/06/15 07:13:56;;;;;;;9.03;4.00;;;;;;;;;;4997103;28;20178;-60
2022/06/15 07:16:22;;;;;;;7.47;3.57;;;;;;;;;;4999653;28;21077;-59
2022/06/15 07:18:48;;;;;;;8.10;3.80;;;;;;;;;;4997349;28;20612;-59
2022/06/15 07:21:24;;;;;;;6.97;3.53;;;;;;;;;;4997628;28;20525;-60
2022/06/15 07:23:50;;;;;;;8.33;4.73;;;;;;;;;;4995155;28;20275;-60
2022/06/15 07:26:18;;;;;;;8.83;4.00;;;;;;;;;;4998798;28;20209;-61
2022/06/15 07:28:44;;;;;;;8.20;4.30;;;;;;;;;;4995873;28;20543;-61
2022/06/15 07:31:10;;;;;;;10.53;4.57;;;;;;;;;;4989679;28;20209;-61
2022/06/15 07:33:36;;;;;;;12.83;4.63;;;;;;;;;;4986900;28;20197;-61
2022/06/15 07:36:03;;;;;;;10.87;5.20;;;;;;;;;;4992995;28;20300;-61
2022/06/15 07:38:28;;;;;;;16.73;4.47;;;;;;;;;;4999630;28;20189;-60
2022/06/15 07:40:57;;;;;;;19.37;4.97;;;;;;;;;;4998455;28;20903;-60
2022/06/15 07:43:23;;;;;;;20.83;5.67;;;;;;;;;;4994254;28;20193;-60
2022/06/15 07:45:49;;;;;;;34.83;6.87;;;;;;;;;;4996434;28;20218;-60
2022/06/15 07:51:00;;;;;;;42.77;8.10;;;;;;;;;;4994131;28;20678;-60
2022/06/15 07:53:26;;;;;;;34.77;8.03;;;;;;;;;;4997010;28;20181;-60
2022/06/15 07:55:53;;;;;;;46.80;9.23;;;;;;;;;;4998943;28;20372;-60
2022/06/15 07:58:19;;;;;;;40.00;7.77;;;;;;;;;;4996441;28;20190;-60
2022/06/15 08:00:46;;;;;;;34.90;8.00;;;;;;;;;;4996400;28;20864;-59
2022/06/15 08:03:12;;;;;;;34.67;7.67;;;;;;;;;;4987682;28;20204;-61
2022/06/15 08:05:42;;;;;;;31.73;6.87;;;;;;;;;;4983237;28;20275;-61
2022/06/15 08:08:10;;;;;;;27.90;7.00;;;;;;;;;;4994352;28;20190;-61
2022/06/15 08:10:36;;;;;;;24.43;5.60;;;;;;;;;;4988496;28;20761;-60
2022/06/15 08:13:02;;;;;;;21.97;6.33;;;;;;;;;;4993492;28;20278;-60
2022/06/15 08:15:28;;;;;;;20.85;5.80;;;;;;;;;;4992623;28;20274;-61
2022/06/15 08:17:55;;;;;;;21.70;4.72;;;;;;;;;;4991747;28;20549;-60
2022/06/15 08:20:24;;;;;;;16.92;4.75;;;;;;;;;;4999301;28;20659;-60
2022/06/15 08:22:51;;;;;;;17.60;4.97;;;;;;;;;;4994122;28;20201;-60
2022/06/15 08:25:19;;;;;;;15.27;4.70;;;;;;;;;;4993237;28;20190;-58
2022/06/15 08:27:45;;;;;;;10.00;3.53;;;;;;;;;;4994266;28;20980;-60
2022/06/15 08:30:11;;;;;;;12.85;3.97;;;;;;;;;;4997275;28;20199;-60
2022/06/15 08:32:38;;;;;;;13.73;4.25;;;;;;;;;;4998415;28;20191;-60
2022/06/15 08:35:04;;;;;;;11.63;4.13;;;;;;;;;;4995777;28;20205;-60
2022/06/15 08:37:30;;;;;;;12.05;4.13;;;;;;;;;;4996976;28;20189;-61
2022/06/15 08:39:56;;;;;;;8.38;3.50;;;;;;;;;;4993079;28;20189;-61
2022/06/15 08:42:25;;;;;;;6.47;3.60;;;;;;;;;;4994917;28;20217;-60
2022/06/15 08:44:54;;;;;;;13.05;3.53;;;;;;;;;;4991046;28;20247;-60
2022/06/15 08:47:31;;;;;;;7.22;3.30;;;;;;;;;;4993822;28;20217;-60
2022/06/15 08:50:00;;;;;;;8.05;3.20;;;;;;;;;;4993681;28;20546;-61
2022/06/15 08:52:31;;;;;;;8.07;3.40;;;;;;;;;;4990518;28;20217;-60
2022/06/15 08:55:15;;;;;;;5.43;3.05;;;;;;;;;;4992364;28;20186;-60
2022/06/15 08:57:53;;;;;;;7.20;3.38;;;;;;;;;;4982880;28;21014;-60
2022/06/15 09:00:33;;;;;;;5.90;3.20;;;;;;;;;;4990091;28;20193;-61
2022/06/15 09:03:11;;;;;;;6.78;3.05;;;;;;;;;;4987529;28;20662;-60
2022/06/15 09:05:39;;;;;;;4.60;2.95;;;;;;;;;;4991042;28;20655;-61
2022/06/15 09:08:07;;;;;;;5.97;3.00;;;;;;;;;;4989691;28;20261;-60
2022/06/15 09:10:40;;;;;;;5.53;3.00;;;;;;;;;;4992518;28;20259;-60
2022/06/15 09:13:25;;;;;;;7.70;3.15;;;;;;;;;;4991546;28;20216;-60
2022/06/15 09:15:51;;;;;;;5.97;2.70;;;;;;;;;;4991007;28;20497;-61
2022/06/15 09:18:28;;;;;;;9.20;2.85;;;;;;;;;;4995603;28;20734;-61
2022/06/15 09:20:55;;;;;;;6.40;2.85;;;;;;;;;;4994835;28;20669;-60
2022/06/15 09:23:21;;;;;;;5.38;2.40;;;;;;;;;;4992183;28;20186;-60
2022/06/15 09:25:52;;;;;;;3.55;2.55;;;;;;;;;;4994146;28;20186;-60
2022/06/15 09:28:25;;;;;;;4.38;2.83;;;;;;;;;;4996749;28;20245;-60
2022/06/15 09:30:51;;;;;;;6.93;2.58;;;;;;;;;;4996371;28;20641;-60
2022/06/15 09:33:19;;;;;;;5.97;2.65;;;;;;;;;;4992664;28;20183;-61
2022/06/15 09:35:51;;;;;;;4.95;2.42;;;;;;;;;;4999426;28;20639;-61
2022/06/15 09:38:17;;;;;;;5.68;2.55;;;;;;;;;;4985654;28;20218;-60
2022/06/15 09:40:53;;;;;;;7.15;2.63;;;;;;;;;;4994747;28;20668;-60
2022/06/15 09:43:37;;;;;;;6.80;2.80;;;;;;;;;;4990510;28;20213;-60
2022/06/15 09:46:10;;;;;;;4.75;2.60;;;;;;;;;;4988138;28;20227;-60
2022/06/15 09:48:58;;;;;;;8.57;3.05;;;;;;;;;;4983753;28;20190;-60
2022/06/15 09:51:26;;;;;;;5.50;2.85;;;;;;;;;;4992818;28;20532;-60
2022/06/15 09:54:13;;;;;;;5.03;2.53;;;;;;;;;;4994649;28;20190;-60
2022/06/15 09:56:39;;;;;;;3.97;2.40;;;;;;;;;;4993095;28;20263;-60
2022/06/15 09:59:09;;;;;;;5.70;2.70;;;;;;;;;;4987004;28;20199;-60
2022/06/15 10:01:36;;;;;;;7.85;2.40;;;;;;;;;;4994720;28;20563;-60
2022/06/15 10:04:03;;;;;;;3.78;3.00;;;;;;;;;;4993231;28;20200;-61
2022/06/15 10:06:29;;;;;;;3.72;2.55;;;;;;;;;;4989563;28;20229;-60
2022/06/15 10:08:55;;;;;;;5.32;2.10;;;;;;;;;;4991895;28;20265;-61
2022/06/15 10:11:41;;;;;;;3.60;2.20;;;;;;;;;;4994562;28;20273;-61
2022/06/15 10:14:27;;;;;;;4.68;2.38;;;;;;;;;;4983070;28;20201;-62
2022/06/15 10:16:55;;;;;;;4.13;2.03;;;;;;;;;;4994539;28;20675;-60
2022/06/15 10:19:21;;;;;;;4.55;2.33;;;;;;;;;;4991226;28;20193;-60
2022/06/15 10:21:51;;;;;;;5.45;2.47;;;;;;;;;;4998110;28;20605;-60
2022/06/15 10:24:20;;;;;;;3.10;2.45;;;;;;;;;;4996520;28;20244;-60
2022/06/15 10:26:46;;;;;;;3.47;2.10;;;;;;;;;;4988646;28;21275;-61
2022/06/15 10:29:15;;;;;;;4.70;2.20;;;;;;;;;;4997026;28;20252;-60
2022/06/15 10:32:01;;;;;;;2.80;1.98;;;;;;;;;;4993050;28;20185;-60
2022/06/15 10:34:28;;;;;;;4.18;2.35;;;;;;;;;;4995198;28;20185;-62
2022/06/15 10:36:55;;;;;;;4.07;2.25;;;;;;;;;;4990518;28;20203;-61
2022/06/15 10:39:24;;;;;;;3.33;1.98;;;;;;;;;;4993396;28;20910;-61
2022/06/15 10:41:50;;;;;;;6.05;2.25;;;;;;;;;;4989441;28;20197;-61
2022/06/15 10:44:36;;;;;;;3.88;2.30;;;;;;;;;;4987638;28;20515;-60
2022/06/15 10:47:07;;;;;;;3.05;2.20;;;;;;;;;;4984823;28;20658;-59
2022/06/15 10:49:34;;;;;;;3.15;2.10;;;;;;;;;;4992737;28;20196;-60
2022/06/15 10:52:00;;;;;;;6.15;2.30;;;;;;;;;;4987098;28;20190;-60
2022/06/15 10:54:31;;;;;;;3.80;2.30;;;;;;;;;;4988544;28;20178;-60
2022/06/15 11:02:44;;;;;;;3.55;2.25;;;;;;;;;;4993138;28;21273;-59
2022/06/15 11:05:10;;;;;;;2.80;2.38;;;;;;;;;;4994053;28;20211;-60
2022/06/15 11:07:41;;;;;;;3.03;2.40;;;;;;;;;;4992803;28;20225;-59
2022/06/15 11:10:09;;;;;;;3.63;2.30;;;;;;;;;;4998190;28;20182;-60
2022/06/15 11:12:46;;;;;;;3.88;2.35;;;;;;;;;;4973141;28;20428;-60
2022/06/15 11:15:21;;;;;;;2.42;2.15;;;;;;;;;;4991344;28;20950;-60
2022/06/15 11:18:05;;;;;;;4.60;2.80;;;;;;;;;;4992097;28;20232;-60
2022/06/15 11:20:50;;;;;;;3.80;2.42;;;;;;;;;;4986161;28;20279;-60
2022/06/15 11:23:22;;;;;;;3.00;2.25;;;;;;;;;;4995534;28;20194;-61
2022/06/15 11:25:53;;;;;;;5.70;2.40;;;;;;;;;;4993166;28;20193;-60
2022/06/15 11:28:37;;;;;;;5.18;2.90;;;;;;;;;;4990573;28;20216;-60
2022/06/15 11:31:04;;;;;;;4.05;2.60;;;;;;;;;;4988518;28;20208;-60
2022/06/15 11:33:30;;;;;;;4.38;2.60;;;;;;;;;;4983599;28;20186;-60
2022/06/15 11:36:28;;;;;;;4.13;2.30;;;;;;;;;;4988706;28;20186;-60
2022/06/15 11:38:57;;;;;;;3.35;2.50;;;;;;;;;;4985571;28;20339;-60
2022/06/15 11:41:30;;;;;;;3.28;2.20;;;;;;;;;;4987968;28;20189;-60
2022/06/15 11:43:56;;;;;;;3.03;2.40;;;;;;;;;;4989572;28;20194;-60
2022/06/15 11:46:41;;;;;;;3.00;2.30;;;;;;;;;;4991784;28;20576;-60
2022/06/15 11:49:19;;;;;;;2.67;2.38;;;;;;;;;;4991479;28;20193;-60
2022/06/15 11:51:45;;;;;;;3.72;2.33;;;;;;;;;;4986047;28;20210;-62
2022/06/15 11:54:34;;;;;;;4.40;2.30;;;;;;;;;;4987575;28;20304;-60
2022/06/15 11:57:04;;;;;;;2.50;2.15;;;;;;;;;;4996467;28;20182;-61
2022/06/15 11:59:34;;;;;;;3.95;2.10;;;;;;;;;;4992600;28;20217;-60
2022/06/15 12:02:00;;;;;;;7.47;2.28;;;;;;;;;;4986668;28;20727;-60
2022/06/15 12:04:44;;;;;;;4.95;2.45;;;;;;;;;;4983959;28;20220;-60
2022/06/15 12:07:14;;;;;;;4.72;2.63;;;;;;;;;;4983116;28;20237;-60
2022/06/15 12:09:58;;;;;;;4.90;3.00;;;;;;;;;;4984286;28;20210;-60
2022/06/15 12:12:39;;;;;;;9.98;3.35;;;;;;;;;;4990133;28;20305;-60
2022/06/15 12:15:06;;;;;;;12.77;3.88;;;;;;;;;;4992781;28;20240;-61
2022/06/15 12:17:34;;;;;;;12.32;3.78;;;;;;;;;;4993953;28;20181;-61
2022/06/15 12:20:26;;;;;;;9.02;3.65;;;;;;;;;;4993103;28;20190;-61
2022/06/15 12:22:58;;;;;;;9.05;3.67;;;;;;;;;;4982484;28;20743;-61
2022/06/15 12:25:27;;;;;;;6.15;3.03;;;;;;;;;;4982103;28;20325;-60
2022/06/15 12:27:56;;;;;;;8.15;3.17;;;;;;;;;;4976319;28;20777;-60
2022/06/15 12:30:27;;;;;;;7.55;3.17;;;;;;;;;;4978710;28;20193;-61
2022/06/15 12:33:04;;;;;;;5.85;2.70;;;;;;;;;;4987020;28;20213;-61
2022/06/15 12:35:33;;;;;;;3.72;2.65;;;;;;;;;;4983368;28;20560;-59
2022/06/15 12:38:02;;;;;;;2.83;2.47;;;;;;;;;;4970915;28;20182;-59
2022/06/15 12:40:32;;;;;;;5.22;2.72;;;;;;;;;;4983192;28;20186;-59
2022/06/15 12:43:08;;;;;;;4.60;2.60;;;;;;;;;;4988574;28;20193;-59
2022/06/15 12:45:34;;;;;;;8.07;2.88;;;;;;;;;;4988722;28;20598;-59
2022/06/15 12:48:01;;;;;;;4.22;2.45;;;;;;;;;;4988679;28;20885;-59
2022/06/15 12:50:38;;;;;;;4.18;2.50;;;;;;;;;;4991525;28;20186;-59
2022/06/15 12:53:16;;;;;;;4.95;2.60;;;;;;;;;;4996552;28;20182;-59
2022/06/15 12:55:45;;;;;;;3.88;2.40;;;;;;;;;;4986586;28;20225;-59
2022/06/15 12:58:22;;;;;;;3.47;2.58;;;;;;;;;;4983602;28;20186;-59
2022/06/15 13:00:50;;;;;;;6.60;2.40;;;;;;;;;;4986916;28;20177;-59
2022/06/15 13:03:32;;;;;;;6.00;2.80;;;;;;;;;;4991658;28;20177;-59
2022/06/15 13:06:17;;;;;;;6.40;2.58;;;;;;;;;;4987841;28;20225;-59
2022/06/15 13:08:43;;;;;;;4.47;2.28;;;;;;;;;;4985859;28;21043;-59
2022/06/15 13:11:18;;;;;;;3.88;2.50;;;;;;;;;;4986581;28;20225;-60
2022/06/15 13:13:44;;;;;;;3.58;2.28;;;;;;;;;;4986374;28;20263;-60
2022/06/15 13:16:15;;;;;;;3.47;2.58;;;;;;;;;;4990920;28;20686;-59
2022/06/15 13:18:46;;;;;;;4.03;2.30;;;;;;;;;;4987078;28;20208;-59
2022/06/15 13:21:12;;;;;;;3.80;2.45;;;;;;;;;;4982079;28;20235;-58
2022/06/15 13:23:38;;;;;;;5.38;2.58;;;;;;;;;;4979894;28;20832;-58
2022/06/15 13:26:08;;;;;;;3.13;2.70;;;;;;;;;;4967512;28;20202;-59
2022/06/15 13:28:55;;;;;;;3.35;2.45;;;;;;;;;;4982828;28;20206;-58
2022/06/15 13:31:40;;;;;;;3.38;2.40;;;;;;;;;;4974498;28;20227;-58
2022/06/15 13:34:06;;;;;;;3.60;2.42;;;;;;;;;;4988420;28;20208;-58
2022/06/15 13:36:32;;;;;;;3.63;2.33;;;;;;;;;;4988000;28;20261;-58
2022/06/15 13:38:58;;;;;;;5.68;2.55;;;;;;;;;;4985034;28;20242;-58
2022/06/15 13:41:25;;;;;;;9.18;2.58;;;;;;;;;;4984743;28;20779;-59
2022/06/15 13:43:51;;;;;;;3.58;2.40;;;;;;;;;;4986781;28;20654;-58
2022/06/15 13:46:26;;;;;;;4.32;2.58;;;;;;;;;;4986185;28;20197;-58
2022/06/15 13:48:53;;;;;;;3.20;2.50;;;;;;;;;;4980649;28;20245;-59
2022/06/15 13:51:34;;;;;;;3.35;2.67;;;;;;;;;;4988326;28;20276;-59
2022/06/15 13:54:10;;;;;;;5.22;2.55;;;;;;;;;;4977810;28;20337;-58
2022/06/15 13:56:38;;;;;;;6.40;2.50;;;;;;;;;;4969377;28;20196;-58
2022/06/15 13:59:08;;;;;;;3.30;2.75;;;;;;;;;;4975237;28;20818;-58
2022/06/15 14:01:47;;;;;;;3.83;2.47;;;;;;;;;;4985802;28;20182;-58
2022/06/15 14:04:26;;;;;;;3.55;2.45;;;;;;;;;;4982785;28;20821;-58
2022/06/15 14:06:55;;;;;;;5.22;2.95;;;;;;;;;;4982729;28;20232;-58
2022/06/15 14:09:40;;;;;;;3.95;2.40;;;;;;;;;;4982469;28;20668;-58
2022/06/15 14:12:08;;;;;;;4.70;2.60;;;;;;;;;;4993169;28;20186;-58
2022/06/15 14:14:44;;;;;;;6.90;3.13;;;;;;;;;;4985213;28;20210;-58
2022/06/15 14:17:29;;;;;;;6.25;2.80;;;;;;;;;;4984941;28;20239;-59
2022/06/15 14:20:06;;;;;;;4.10;2.72;;;;;;;;;;4984147;28;20196;-59
2022/06/15 14:22:43;;;;;;;4.40;2.65;;;;;;;;;;4986803;28;20269;-58
2022/06/15 14:25:10;;;;;;;3.65;2.83;;;;;;;;;;4983869;28;20208;-58
2022/06/15 14:27:36;;;;;;;5.20;2.30;;;;;;;;;;5002325;28;20695;-58
2022/06/15 14:30:04;;;;;;;3.83;2.58;;;;;;;;;;4987516;28;20182;-58
2022/06/15 14:32:37;;;;;;;4.15;2.17;;;;;;;;;;4973559;28;20495;-58
2022/06/15 14:35:11;;;;;;;3.22;2.30;;;;;;;;;;4976710;28;20663;-57
2022/06/15 14:37:37;;;;;;;6.18;3.00;;;;;;;;;;4970835;28;20580;-58
2022/06/15 14:40:03;;;;;;;4.07;2.60;;;;;;;;;;4981822;28;20200;-58
2022/06/15 14:42:54;;;;;;;8.55;2.30;;;;;;;;;;4988657;28;20182;-58
2022/06/15 14:45:16;;;;;;;5.95;2.63;;;;;;;;;;4985222;28;20293;-58
2022/06/15 14:47:49;;;;;;;4.88;2.17;;;;;;;;;;4967700;28;20213;-58
2022/06/15 14:50:15;;;;;;;4.15;2.40;;;;;;;;;;4986083;28;20189;-58
2022/06/15 14:52:41;;;;;;;4.43;2.40;;;;;;;;;;4980245;28;20182;-58
2022/06/15 14:55:15;;;;;;;3.60;2.33;;;;;;;;;;4984694;28;20320;-58
2022/06/15 14:57:41;;;;;;;5.07;2.10;;;;;;;;;;4981636;28;20208;-58
2022/06/15 15:00:19;;;;;;;3.05;2.35;;;;;;;;;;4982572;28;22488;-58
2022/06/15 15:02:47;;;;;;;8.68;2.50;;;;;;;;;;4986520;28;20629;-58
2022/06/15 15:05:13;;;;;;;5.22;2.33;;;;;;;;;;4988233;28;20568;-58